Ormsby, MN (56162)

08:25 AM CDT del 30 Settembre 2016 (GMT -0500)
NuWay Coop - Ormsby | | Change Station

Alt. 1187 ft 43.85 °N, 94.70 °W | Updated 13 minutes ago

Fog
Nebbia
45.2 °F
Sembra 45 °F
N
3.0
Vento Variabile Vento da Ovest
Gusts 6.0 mph

Oggi
Massima -- | Minima -- °F
--% Possibilità di precip.
Ieri
Massima -- | Minima -- °F
Precip. -- in
Pressione 30.36 in
Visibilità 0.2 miglia
Nuvole Coperto 100 ft
Raffreddamento del vento 45 °F
Punto di rugiada 44 °F
Umidità 97%
Piovosità 0.00 in
Spessore del manto nevoso Non disponibile.
7:15 AM 7:00 PM
Luna calante, 0% visible
METAR KJYG 301315Z AUTO 00000KT M1/4SM FG OVC001 07/07 A3036 RMK AO2
Pressione 30.36 in
Visibilità 0.2 miglia
Nuvole Coperto 100 ft
Raffreddamento del vento 45 °F
Punto di rugiada 44 °F
Umidità 97%
Piovosità 0.00 in
Spessore del manto nevoso Non disponibile.
7:15 AM 7:00 PM
Luna calante, 0% visible
METAR KJYG 301315Z AUTO 00000KT M1/4SM FG OVC001 07/07 A3036 RMK AO2

10-Day Weather Forecast

Almanac

Astronomia

Sep. 30, 2016 Alba Tramonto
Ora attuale
Crepuscolo civile
Crepuscolo nautico
Crepuscolo astronomico
Luna
Estensione della luce visibile
Lunghezza del giorno
Tomorrow will be .
, % of the Moon is Illuminated

Gli estremi di oggi

State Highs State Lows

Community

WunderPhotos

Upload Photos

1,942,708 foto caricate!

WunderBlog® & News

Nearby

Qualità dell'aria

  Qualità dell'aria Indice AQ Inquinante
Not available.

Profondità neve

Stazione Profondità Altitudine

Attività sismica

Città  Distanza Mag. Data & Ora
Minimo Magnitudo Mostrato è 2.5.

Temperature delle acque costiere

Località Temperatura

Stations

Stazioni meteo nelle vicinanze

Ubicazione della stazione Temp. Raffreddamento del vento Punto di rugiada Umidità Vento Precip. Alt. Aggiornato Tipo
                   

Watches & Warnings

There are currently no watches in effect.